sensor_id;sensor_type;location;lat;lon;timestamp;P1;durP1;ratioP1;P2;durP2;ratioP2
4698;SDS011;33708;49.466;11.176;2022-09-29T00:01:25;11.83;;;4.60;;
4698;SDS011;33708;49.466;11.176;2022-09-29T00:03:51;12.07;;;4.20;;
4698;SDS011;33708;49.466;11.176;2022-09-29T00:06:17;15.00;;;5.50;;
4698;SDS011;33708;49.466;11.176;2022-09-29T00:08:43;12.63;;;4.93;;
4698;SDS011;33708;49.466;11.176;2022-09-29T00:11:10;10.60;;;4.93;;
4698;SDS011;33708;49.466;11.176;2022-09-29T00:13:37;16.80;;;5.10;;
4698;SDS011;33708;49.466;11.176;2022-09-29T00:16:03;11.33;;;5.17;;
4698;SDS011;33708;49.466;11.176;2022-09-29T00:18:30;11.57;;;5.93;;
4698;SDS011;33708;49.466;11.176;2022-09-29T00:20:57;12.57;;;5.83;;
4698;SDS011;33708;49.466;11.176;2022-09-29T00:23:24;10.33;;;5.73;;
4698;SDS011;33708;49.466;11.176;2022-09-29T00:28:34;15.77;;;6.13;;
4698;SDS011;33708;49.466;11.176;2022-09-29T00:31:02;9.93;;;4.87;;
4698;SDS011;33708;49.466;11.176;2022-09-29T00:33:32;12.70;;;5.77;;
4698;SDS011;33708;49.466;11.176;2022-09-29T00:35:59;19.93;;;5.73;;
4698;SDS011;33708;49.466;11.176;2022-09-29T00:38:27;19.20;;;5.10;;
4698;SDS011;33708;49.466;11.176;2022-09-29T00:40:53;11.90;;;4.83;;
4698;SDS011;33708;49.466;11.176;2022-09-29T00:46:11;12.23;;;5.13;;
4698;SDS011;33708;49.466;11.176;2022-09-29T00:48:40;14.87;;;5.70;;
4698;SDS011;33708;49.466;11.176;2022-09-29T00:51:07;19.20;;;5.40;;
4698;SDS011;33708;49.466;11.176;2022-09-29T00:53:33;17.73;;;5.40;;
4698;SDS011;33708;49.466;11.176;2022-09-29T00:56:03;11.03;;;4.70;;
4698;SDS011;33708;49.466;11.176;2022-09-29T00:58:36;11.40;;;4.70;;
4698;SDS011;33708;49.466;11.176;2022-09-29T01:01:06;12.60;;;5.37;;
4698;SDS011;33708;49.466;11.176;2022-09-29T01:03:34;12.30;;;5.63;;
4698;SDS011;33708;49.466;11.176;2022-09-29T01:06:09;12.37;;;4.73;;
4698;SDS011;33708;49.466;11.176;2022-09-29T01:09:01;16.23;;;5.30;;
4698;SDS011;33708;49.466;11.176;2022-09-29T01:11:32;18.57;;;4.80;;
4698;SDS011;33708;49.466;11.176;2022-09-29T01:13:59;14.33;;;5.60;;
4698;SDS011;33708;49.466;11.176;2022-09-29T01:16:32;13.93;;;6.03;;
4698;SDS011;33708;49.466;11.176;2022-09-29T01:18:59;20.43;;;5.40;;
4698;SDS011;33708;49.466;11.176;2022-09-29T01:26:56;11.10;;;4.70;;
4698;SDS011;33708;49.466;11.176;2022-09-29T01:37:43;12.33;;;5.80;;
4698;SDS011;33708;49.466;11.176;2022-09-29T01:48:46;13.27;;;6.80;;
4698;SDS011;33708;49.466;11.176;2022-09-29T01:51:16;13.33;;;6.17;;
4698;SDS011;33708;49.466;11.176;2022-09-29T01:53:51;16.73;;;5.87;;
4698;SDS011;33708;49.466;11.176;2022-09-29T01:57:06;17.20;;;6.10;;
4698;SDS011;33708;49.466;11.176;2022-09-29T01:59:32;13.20;;;6.50;;
4698;SDS011;33708;49.466;11.176;2022-09-29T02:02:08;12.50;;;5.30;;
4698;SDS011;33708;49.466;11.176;2022-09-29T02:04:47;15.80;;;6.60;;
4698;SDS011;33708;49.466;11.176;2022-09-29T02:07:25;17.83;;;6.83;;
4698;SDS011;33708;49.466;11.176;2022-09-29T02:10:00;11.20;;;5.50;;
4698;SDS011;33708;49.466;11.176;2022-09-29T02:12:29;11.30;;;5.80;;
4698;SDS011;33708;49.466;11.176;2022-09-29T02:14:58;11.37;;;5.50;;
4698;SDS011;33708;49.466;11.176;2022-09-29T02:17:30;15.40;;;6.40;;
4698;SDS011;33708;49.466;11.176;2022-09-29T02:20:01;13.00;;;5.67;;
4698;SDS011;33708;49.466;11.176;2022-09-29T02:22:28;15.20;;;5.60;;
4698;SDS011;33708;49.466;11.176;2022-09-29T02:24:54;19.73;;;5.57;;
4698;SDS011;33708;49.466;11.176;2022-09-29T02:27:23;25.30;;;5.60;;
4698;SDS011;33708;49.466;11.176;2022-09-29T02:29:50;11.43;;;5.37;;
4698;SDS011;33708;49.466;11.176;2022-09-29T02:32:16;8.80;;;4.30;;
4698;SDS011;33708;49.466;11.176;2022-09-29T02:34:43;16.80;;;5.90;;
4698;SDS011;33708;49.466;11.176;2022-09-29T02:40:05;14.90;;;5.90;;
4698;SDS011;33708;49.466;11.176;2022-09-29T02:59:11;15.10;;;5.87;;
4698;SDS011;33708;49.466;11.176;2022-09-29T03:01:50;11.87;;;4.73;;
4698;SDS011;33708;49.466;11.176;2022-09-29T03:04:18;15.53;;;6.00;;
4698;SDS011;33708;49.466;11.176;2022-09-29T03:06:46;18.33;;;5.53;;
4698;SDS011;33708;49.466;11.176;2022-09-29T03:09:11;16.00;;;5.83;;
4698;SDS011;33708;49.466;11.176;2022-09-29T03:11:37;12.47;;;5.83;;
4698;SDS011;33708;49.466;11.176;2022-09-29T03:14:03;10.47;;;5.13;;
4698;SDS011;33708;49.466;11.176;2022-09-29T03:16:30;17.57;;;5.60;;
4698;SDS011;33708;49.466;11.176;2022-09-29T03:18:56;12.03;;;5.80;;
4698;SDS011;33708;49.466;11.176;2022-09-29T03:21:22;10.50;;;5.03;;
4698;SDS011;33708;49.466;11.176;2022-09-29T03:23:47;13.93;;;5.80;;
4698;SDS011;33708;49.466;11.176;2022-09-29T03:26:13;18.30;;;5.47;;
4698;SDS011;33708;49.466;11.176;2022-09-29T03:28:38;9.43;;;4.60;;
4698;SDS011;33708;49.466;11.176;2022-09-29T03:31:05;11.67;;;5.40;;
4698;SDS011;33708;49.466;11.176;2022-09-29T03:33:31;14.10;;;4.20;;
4698;SDS011;33708;49.466;11.176;2022-09-29T03:35:57;11.00;;;5.13;;
4698;SDS011;33708;49.466;11.176;2022-09-29T03:38:23;12.13;;;4.80;;
4698;SDS011;33708;49.466;11.176;2022-09-29T03:40:48;11.07;;;4.60;;
4698;SDS011;33708;49.466;11.176;2022-09-29T03:43:14;13.00;;;6.13;;
4698;SDS011;33708;49.466;11.176;2022-09-29T03:45:49;11.57;;;5.13;;
4698;SDS011;33708;49.466;11.176;2022-09-29T03:48:17;13.13;;;5.43;;
4698;SDS011;33708;49.466;11.176;2022-09-29T03:50:46;11.40;;;5.40;;
4698;SDS011;33708;49.466;11.176;2022-09-29T03:53:12;17.97;;;6.43;;
4698;SDS011;33708;49.466;11.176;2022-09-29T03:55:38;22.47;;;5.30;;
4698;SDS011;33708;49.466;11.176;2022-09-29T03:58:04;16.63;;;5.70;;
4698;SDS011;33708;49.466;11.176;2022-09-29T04:00:30;11.03;;;5.07;;
4698;SDS011;33708;49.466;11.176;2022-09-29T04:02:57;18.13;;;5.37;;
4698;SDS011;33708;49.466;11.176;2022-09-29T04:05:23;18.50;;;5.43;;
4698;SDS011;33708;49.466;11.176;2022-09-29T04:07:48;17.33;;;4.80;;
4698;SDS011;33708;49.466;11.176;2022-09-29T04:10:14;18.27;;;5.10;;
4698;SDS011;33708;49.466;11.176;2022-09-29T04:12:40;12.70;;;5.70;;
4698;SDS011;33708;49.466;11.176;2022-09-29T04:15:06;18.43;;;6.50;;
4698;SDS011;33708;49.466;11.176;2022-09-29T04:17:31;21.73;;;5.30;;
4698;SDS011;33708;49.466;11.176;2022-09-29T04:19:57;10.20;;;5.20;;
4698;SDS011;33708;49.466;11.176;2022-09-29T04:22:23;14.47;;;5.80;;
4698;SDS011;33708;49.466;11.176;2022-09-29T04:24:48;26.40;;;6.70;;
4698;SDS011;33708;49.466;11.176;2022-09-29T04:27:15;18.30;;;5.83;;
4698;SDS011;33708;49.466;11.176;2022-09-29T04:29:41;23.50;;;4.53;;
4698;SDS011;33708;49.466;11.176;2022-09-29T04:32:06;10.33;;;3.80;;
4698;SDS011;33708;49.466;11.176;2022-09-29T04:34:32;8.70;;;4.00;;
4698;SDS011;33708;49.466;11.176;2022-09-29T04:36:59;14.17;;;5.10;;
4698;SDS011;33708;49.466;11.176;2022-09-29T04:39:25;15.33;;;4.97;;
4698;SDS011;33708;49.466;11.176;2022-09-29T04:41:51;11.00;;;4.70;;
4698;SDS011;33708;49.466;11.176;2022-09-29T04:44:16;10.37;;;4.40;;
4698;SDS011;33708;49.466;11.176;2022-09-29T04:46:44;12.50;;;5.30;;
4698;SDS011;33708;49.466;11.176;2022-09-29T04:49:09;9.03;;;4.60;;
4698;SDS011;33708;49.466;11.176;2022-09-29T04:51:35;13.57;;;4.70;;
4698;SDS011;33708;49.466;11.176;2022-09-29T04:54:01;15.93;;;6.30;;
4698;SDS011;33708;49.466;11.176;2022-09-29T04:56:26;13.93;;;7.53;;
4698;SDS011;33708;49.466;11.176;2022-09-29T04:58:55;16.53;;;6.60;;
4698;SDS011;33708;49.466;11.176;2022-09-29T05:01:22;11.17;;;5.17;;
4698;SDS011;33708;49.466;11.176;2022-09-29T05:03:48;12.33;;;5.43;;
4698;SDS011;33708;49.466;11.176;2022-09-29T05:06:14;15.63;;;6.57;;
4698;SDS011;33708;49.466;11.176;2022-09-29T05:08:39;15.43;;;5.70;;
4698;SDS011;33708;49.466;11.176;2022-09-29T05:11:06;13.80;;;5.30;;
4698;SDS011;33708;49.466;11.176;2022-09-29T05:13:32;10.37;;;4.40;;
4698;SDS011;33708;49.466;11.176;2022-09-29T05:15:58;12.27;;;4.50;;
4698;SDS011;33708;49.466;11.176;2022-09-29T05:18:25;14.70;;;4.70;;
4698;SDS011;33708;49.466;11.176;2022-09-29T05:20:51;22.47;;;4.57;;
4698;SDS011;33708;49.466;11.176;2022-09-29T05:23:17;13.00;;;4.90;;
4698;SDS011;33708;49.466;11.176;2022-09-29T05:25:43;15.20;;;4.97;;
4698;SDS011;33708;49.466;11.176;2022-09-29T05:28:09;13.07;;;5.60;;
4698;SDS011;33708;49.466;11.176;2022-09-29T05:30:36;9.70;;;4.73;;
4698;SDS011;33708;49.466;11.176;2022-09-29T05:33:02;9.70;;;4.73;;
4698;SDS011;33708;49.466;11.176;2022-09-29T05:35:28;10.67;;;4.60;;
4698;SDS011;33708;49.466;11.176;2022-09-29T05:37:54;10.63;;;4.13;;
4698;SDS011;33708;49.466;11.176;2022-09-29T05:40:19;10.67;;;4.80;;
4698;SDS011;33708;49.466;11.176;2022-09-29T05:42:48;15.70;;;4.50;;
4698;SDS011;33708;49.466;11.176;2022-09-29T05:45:14;9.20;;;4.30;;
4698;SDS011;33708;49.466;11.176;2022-09-29T05:47:40;10.13;;;4.70;;
4698;SDS011;33708;49.466;11.176;2022-09-29T05:50:07;11.57;;;4.50;;
4698;SDS011;33708;49.466;11.176;2022-09-29T05:52:34;10.60;;;5.10;;
4698;SDS011;33708;49.466;11.176;2022-09-29T05:54:59;11.00;;;4.53;;
4698;SDS011;33708;49.466;11.176;2022-09-29T05:57:25;17.50;;;5.33;;
4698;SDS011;33708;49.466;11.176;2022-09-29T05:59:50;9.47;;;4.90;;
4698;SDS011;33708;49.466;11.176;2022-09-29T06:02:16;18.73;;;5.07;;
4698;SDS011;33708;49.466;11.176;2022-09-29T06:04:42;15.47;;;5.57;;
4698;SDS011;33708;49.466;11.176;2022-09-29T06:07:08;12.70;;;5.50;;
4698;SDS011;33708;49.466;11.176;2022-09-29T06:09:33;11.60;;;4.10;;
4698;SDS011;33708;49.466;11.176;2022-09-29T06:12:02;12.30;;;5.00;;
4698;SDS011;33708;49.466;11.176;2022-09-29T06:14:28;19.20;;;5.43;;
4698;SDS011;33708;49.466;11.176;2022-09-29T06:16:54;23.23;;;4.93;;
4698;SDS011;33708;49.466;11.176;2022-09-29T06:19:20;16.30;;;5.10;;
4698;SDS011;33708;49.466;11.176;2022-09-29T06:21:45;10.50;;;4.70;;
4698;SDS011;33708;49.466;11.176;2022-09-29T06:24:11;13.13;;;4.80;;
4698;SDS011;33708;49.466;11.176;2022-09-29T06:26:36;11.00;;;4.80;;
4698;SDS011;33708;49.466;11.176;2022-09-29T06:29:02;11.40;;;5.43;;
4698;SDS011;33708;49.466;11.176;2022-09-29T06:31:29;12.50;;;5.90;;
4698;SDS011;33708;49.466;11.176;2022-09-29T06:33:59;12.67;;;6.17;;
4698;SDS011;33708;49.466;11.176;2022-09-29T06:36:59;13.57;;;6.17;;
4698;SDS011;33708;49.466;11.176;2022-09-29T06:39:36;17.07;;;7.90;;
4698;SDS011;33708;49.466;11.176;2022-09-29T06:42:02;17.83;;;5.93;;
4698;SDS011;33708;49.466;11.176;2022-09-29T06:44:28;21.97;;;5.80;;
4698;SDS011;33708;49.466;11.176;2022-09-29T06:46:55;14.50;;;8.23;;
4698;SDS011;33708;49.466;11.176;2022-09-29T06:49:21;13.57;;;7.13;;
4698;SDS011;33708;49.466;11.176;2022-09-29T06:51:48;12.37;;;6.40;;
4698;SDS011;33708;49.466;11.176;2022-09-29T06:54:14;11.73;;;6.10;;
4698;SDS011;33708;49.466;11.176;2022-09-29T06:56:42;15.30;;;5.70;;
4698;SDS011;33708;49.466;11.176;2022-09-29T06:59:11;13.37;;;6.40;;
4698;SDS011;33708;49.466;11.176;2022-09-29T07:01:36;14.10;;;7.30;;
4698;SDS011;33708;49.466;11.176;2022-09-29T07:04:02;15.57;;;7.37;;
4698;SDS011;33708;49.466;11.176;2022-09-29T07:06:27;14.87;;;6.93;;
4698;SDS011;33708;49.466;11.176;2022-09-29T07:08:57;16.70;;;8.43;;
4698;SDS011;33708;49.466;11.176;2022-09-29T07:11:24;13.70;;;6.27;;
4698;SDS011;33708;49.466;11.176;2022-09-29T07:13:50;13.83;;;7.03;;
4698;SDS011;33708;49.466;11.176;2022-09-29T07:16:16;16.63;;;8.43;;
4698;SDS011;33708;49.466;11.176;2022-09-29T07:18:42;17.77;;;8.00;;
4698;SDS011;33708;49.466;11.176;2022-09-29T07:21:10;18.37;;;9.37;;
4698;SDS011;33708;49.466;11.176;2022-09-29T07:23:37;23.30;;;8.30;;
4698;SDS011;33708;49.466;11.176;2022-09-29T07:26:04;18.47;;;6.17;;
4698;SDS011;33708;49.466;11.176;2022-09-29T07:28:31;16.30;;;5.80;;
4698;SDS011;33708;49.466;11.176;2022-09-29T07:31:00;14.33;;;5.93;;
4698;SDS011;33708;49.466;11.176;2022-09-29T07:33:28;12.33;;;6.47;;
4698;SDS011;33708;49.466;11.176;2022-09-29T07:35:54;17.30;;;6.40;;
4698;SDS011;33708;49.466;11.176;2022-09-29T07:38:21;13.00;;;5.90;;
4698;SDS011;33708;49.466;11.176;2022-09-29T07:40:47;18.10;;;6.67;;
4698;SDS011;33708;49.466;11.176;2022-09-29T07:43:12;30.17;;;6.80;;
4698;SDS011;33708;49.466;11.176;2022-09-29T07:45:43;19.10;;;7.17;;
4698;SDS011;33708;49.466;11.176;2022-09-29T07:48:13;12.90;;;6.13;;
4698;SDS011;33708;49.466;11.176;2022-09-29T07:50:39;15.97;;;7.60;;
4698;SDS011;33708;49.466;11.176;2022-09-29T07:53:05;15.87;;;6.70;;
4698;SDS011;33708;49.466;11.176;2022-09-29T07:55:30;16.47;;;6.43;;
4698;SDS011;33708;49.466;11.176;2022-09-29T07:57:56;14.27;;;6.53;;
4698;SDS011;33708;49.466;11.176;2022-09-29T08:00:22;14.00;;;6.67;;
4698;SDS011;33708;49.466;11.176;2022-09-29T08:02:47;13.60;;;6.97;;
4698;SDS011;33708;49.466;11.176;2022-09-29T08:05:13;15.07;;;6.33;;
4698;SDS011;33708;49.466;11.176;2022-09-29T08:07:39;9.80;;;5.20;;
4698;SDS011;33708;49.466;11.176;2022-09-29T08:10:05;19.40;;;7.70;;
4698;SDS011;33708;49.466;11.176;2022-09-29T08:12:31;15.83;;;6.63;;
4698;SDS011;33708;49.466;11.176;2022-09-29T08:14:56;13.50;;;6.83;;
4698;SDS011;33708;49.466;11.176;2022-09-29T08:17:22;12.80;;;5.73;;
4698;SDS011;33708;49.466;11.176;2022-09-29T08:19:48;11.30;;;5.80;;
4698;SDS011;33708;49.466;11.176;2022-09-29T08:22:13;17.13;;;5.97;;
4698;SDS011;33708;49.466;11.176;2022-09-29T08:24:39;16.23;;;5.77;;
4698;SDS011;33708;49.466;11.176;2022-09-29T08:27:05;11.80;;;5.77;;
4698;SDS011;33708;49.466;11.176;2022-09-29T08:29:31;13.30;;;5.40;;
4698;SDS011;33708;49.466;11.176;2022-09-29T08:31:57;13.83;;;5.90;;
4698;SDS011;33708;49.466;11.176;2022-09-29T08:34:23;11.03;;;4.50;;
4698;SDS011;33708;49.466;11.176;2022-09-29T08:36:48;10.77;;;4.83;;
4698;SDS011;33708;49.466;11.176;2022-09-29T08:39:14;10.27;;;5.43;;
4698;SDS011;33708;49.466;11.176;2022-09-29T08:44:15;13.77;;;4.63;;
4698;SDS011;33708;49.466;11.176;2022-09-29T08:49:57;10.73;;;4.80;;
4698;SDS011;33708;49.466;11.176;2022-09-29T08:52:27;19.10;;;5.10;;
4698;SDS011;33708;49.466;11.176;2022-09-29T08:54:58;9.40;;;4.13;;
4698;SDS011;33708;49.466;11.176;2022-09-29T08:57:34;11.80;;;5.27;;
4698;SDS011;33708;49.466;11.176;2022-09-29T09:00:00;14.63;;;5.97;;
4698;SDS011;33708;49.466;11.176;2022-09-29T09:05:39;15.23;;;4.67;;
4698;SDS011;33708;49.466;11.176;2022-09-29T09:13:55;10.77;;;4.20;;
4698;SDS011;33708;49.466;11.176;2022-09-29T09:19:23;15.50;;;3.60;;
4698;SDS011;33708;49.466;11.176;2022-09-29T09:22:23;9.07;;;4.20;;
4698;SDS011;33708;49.466;11.176;2022-09-29T09:27:43;16.03;;;4.90;;
4698;SDS011;33708;49.466;11.176;2022-09-29T09:30:15;11.63;;;4.80;;
4698;SDS011;33708;49.466;11.176;2022-09-29T09:32:53;12.07;;;4.63;;
4698;SDS011;33708;49.466;11.176;2022-09-29T09:35:26;15.70;;;4.97;;
4698;SDS011;33708;49.466;11.176;2022-09-29T09:38:03;15.50;;;5.73;;
4698;SDS011;33708;49.466;11.176;2022-09-29T09:40:39;11.40;;;4.80;;
4698;SDS011;33708;49.466;11.176;2022-09-29T09:48:43;16.90;;;5.23;;
4698;SDS011;33708;49.466;11.176;2022-09-29T09:54:33;14.17;;;5.73;;
4698;SDS011;33708;49.466;11.176;2022-09-29T10:00:13;19.07;;;6.10;;
4698;SDS011;33708;49.466;11.176;2022-09-29T10:02:42;18.23;;;5.80;;
4698;SDS011;33708;49.466;11.176;2022-09-29T10:05:14;12.30;;;5.20;;
4698;SDS011;33708;49.466;11.176;2022-09-29T10:07:42;17.10;;;4.23;;
4698;SDS011;33708;49.466;11.176;2022-09-29T10:10:18;10.97;;;4.70;;
4698;SDS011;33708;49.466;11.176;2022-09-29T10:12:48;12.00;;;4.60;;
4698;SDS011;33708;49.466;11.176;2022-09-29T10:15:21;9.30;;;3.60;;
4698;SDS011;33708;49.466;11.176;2022-09-29T10:18:00;12.70;;;4.00;;
4698;SDS011;33708;49.466;11.176;2022-09-29T10:20:49;10.23;;;3.83;;
4698;SDS011;33708;49.466;11.176;2022-09-29T10:25:54;8.87;;;2.67;;
4698;SDS011;33708;49.466;11.176;2022-09-29T10:28:40;12.50;;;3.37;;
4698;SDS011;33708;49.466;11.176;2022-09-29T10:31:31;9.90;;;3.83;;
4698;SDS011;33708;49.466;11.176;2022-09-29T10:34:00;13.47;;;3.53;;
4698;SDS011;33708;49.466;11.176;2022-09-29T10:39:43;10.13;;;3.23;;
4698;SDS011;33708;49.466;11.176;2022-09-29T10:42:25;11.37;;;3.40;;
4698;SDS011;33708;49.466;11.176;2022-09-29T10:45:17;13.17;;;3.40;;
4698;SDS011;33708;49.466;11.176;2022-09-29T10:47:47;13.53;;;4.00;;
4698;SDS011;33708;49.466;11.176;2022-09-29T10:52:50;17.53;;;4.87;;
4698;SDS011;33708;49.466;11.176;2022-09-29T10:55:24;13.10;;;3.67;;
4698;SDS011;33708;49.466;11.176;2022-09-29T10:57:53;12.40;;;3.83;;
4698;SDS011;33708;49.466;11.176;2022-09-29T11:00:24;11.63;;;4.50;;
4698;SDS011;33708;49.466;11.176;2022-09-29T11:02:56;13.43;;;4.23;;
4698;SDS011;33708;49.466;11.176;2022-09-29T11:06:20;12.07;;;4.87;;
4698;SDS011;33708;49.466;11.176;2022-09-29T11:11:26;10.20;;;4.00;;
4698;SDS011;33708;49.466;11.176;2022-09-29T11:13:53;14.03;;;4.27;;
4698;SDS011;33708;49.466;11.176;2022-09-29T11:18:54;10.53;;;3.80;;
4698;SDS011;33708;49.466;11.176;2022-09-29T11:32:13;10.83;;;3.13;;
4698;SDS011;33708;49.466;11.176;2022-09-29T11:40:10;10.77;;;3.40;;
4698;SDS011;33708;49.466;11.176;2022-09-29T11:42:55;10.50;;;4.10;;
4698;SDS011;33708;49.466;11.176;2022-09-29T11:46:10;9.90;;;3.33;;
4698;SDS011;33708;49.466;11.176;2022-09-29T11:52:01;14.27;;;2.97;;
4698;SDS011;33708;49.466;11.176;2022-09-29T12:00:02;8.50;;;2.60;;
4698;SDS011;33708;49.466;11.176;2022-09-29T12:10:36;10.63;;;2.70;;
4698;SDS011;33708;49.466;11.176;2022-09-29T12:15:55;9.90;;;3.77;;
4698;SDS011;33708;49.466;11.176;2022-09-29T12:18:24;12.77;;;4.50;;
4698;SDS011;33708;49.466;11.176;2022-09-29T12:20:55;10.33;;;3.30;;
4698;SDS011;33708;49.466;11.176;2022-09-29T12:23:23;10.07;;;3.40;;
4698;SDS011;33708;49.466;11.176;2022-09-29T12:25:59;11.97;;;3.40;;
4698;SDS011;33708;49.466;11.176;2022-09-29T12:31:54;10.23;;;3.30;;
4698;SDS011;33708;49.466;11.176;2022-09-29T12:50:43;9.07;;;3.03;;
4698;SDS011;33708;49.466;11.176;2022-09-29T12:53:17;8.53;;;3.60;;
4698;SDS011;33708;49.466;11.176;2022-09-29T12:56:02;12.13;;;3.23;;
4698;SDS011;33708;49.466;11.176;2022-09-29T12:58:38;10.67;;;3.63;;
4698;SDS011;33708;49.466;11.176;2022-09-29T13:15:40;7.77;;;2.80;;
4698;SDS011;33708;49.466;11.176;2022-09-29T13:18:43;10.87;;;3.17;;
4698;SDS011;33708;49.466;11.176;2022-09-29T13:32:25;10.27;;;3.30;;
4698;SDS011;33708;49.466;11.176;2022-09-29T13:34:53;8.83;;;3.00;;
4698;SDS011;33708;49.466;11.176;2022-09-29T13:37:22;11.30;;;3.30;;
4698;SDS011;33708;49.466;11.176;2022-09-29T13:47:46;13.57;;;5.00;;
4698;SDS011;33708;49.466;11.176;2022-09-29T13:55:50;10.80;;;4.07;;
4698;SDS011;33708;49.466;11.176;2022-09-29T13:58:23;11.40;;;3.97;;
4698;SDS011;33708;49.466;11.176;2022-09-29T14:00:51;11.13;;;3.90;;
4698;SDS011;33708;49.466;11.176;2022-09-29T14:03:22;9.30;;;3.33;;
4698;SDS011;33708;49.466;11.176;2022-09-29T14:08:50;13.80;;;4.90;;
4698;SDS011;33708;49.466;11.176;2022-09-29T14:11:20;14.10;;;4.83;;
4698;SDS011;33708;49.466;11.176;2022-09-29T14:13:59;13.70;;;5.20;;
4698;SDS011;33708;49.466;11.176;2022-09-29T14:16:29;11.10;;;4.60;;
4698;SDS011;33708;49.466;11.176;2022-09-29T14:19:08;12.23;;;4.13;;
4698;SDS011;33708;49.466;11.176;2022-09-29T14:21:59;11.40;;;4.17;;
4698;SDS011;33708;49.466;11.176;2022-09-29T14:35:35;12.53;;;5.93;;
4698;SDS011;33708;49.466;11.176;2022-09-29T14:41:01;11.23;;;4.80;;
4698;SDS011;33708;49.466;11.176;2022-09-29T14:46:26;15.23;;;6.23;;
4698;SDS011;33708;49.466;11.176;2022-09-29T14:49:42;19.50;;;8.77;;
4698;SDS011;33708;49.466;11.176;2022-09-29T15:03:45;11.80;;;4.73;;
4698;SDS011;33708;49.466;11.176;2022-09-29T15:06:18;12.77;;;3.90;;
4698;SDS011;33708;49.466;11.176;2022-09-29T15:11:34;19.07;;;4.93;;
4698;SDS011;33708;49.466;11.176;2022-09-29T15:19:44;14.03;;;4.50;;
4698;SDS011;33708;49.466;11.176;2022-09-29T15:25:29;15.33;;;4.13;;
4698;SDS011;33708;49.466;11.176;2022-09-29T15:28:02;15.23;;;3.80;;
4698;SDS011;33708;49.466;11.176;2022-09-29T15:30:49;9.80;;;4.00;;
4698;SDS011;33708;49.466;11.176;2022-09-29T15:33:25;13.07;;;4.30;;
4698;SDS011;33708;49.466;11.176;2022-09-29T15:35:56;9.60;;;3.60;;
4698;SDS011;33708;49.466;11.176;2022-09-29T15:38:39;10.20;;;3.80;;
4698;SDS011;33708;49.466;11.176;2022-09-29T15:43:41;17.13;;;4.00;;
4698;SDS011;33708;49.466;11.176;2022-09-29T15:46:20;9.87;;;3.47;;
4698;SDS011;33708;49.466;11.176;2022-09-29T15:51:41;8.93;;;3.57;;
4698;SDS011;33708;49.466;11.176;2022-09-29T15:54:11;9.00;;;3.57;;
4698;SDS011;33708;49.466;11.176;2022-09-29T15:56:39;9.57;;;3.63;;
4698;SDS011;33708;49.466;11.176;2022-09-29T15:59:43;11.33;;;3.77;;
4698;SDS011;33708;49.466;11.176;2022-09-29T16:05:02;11.40;;;4.33;;
4698;SDS011;33708;49.466;11.176;2022-09-29T16:07:32;11.83;;;3.90;;
4698;SDS011;33708;49.466;11.176;2022-09-29T16:10:20;13.97;;;4.50;;
4698;SDS011;33708;49.466;11.176;2022-09-29T16:12:53;11.13;;;3.70;;
4698;SDS011;33708;49.466;11.176;2022-09-29T16:15:31;10.40;;;4.00;;
4698;SDS011;33708;49.466;11.176;2022-09-29T16:18:00;11.53;;;3.60;;
4698;SDS011;33708;49.466;11.176;2022-09-29T16:20:30;10.33;;;3.27;;
4698;SDS011;33708;49.466;11.176;2022-09-29T16:23:08;8.60;;;4.10;;
4698;SDS011;33708;49.466;11.176;2022-09-29T16:25:40;13.73;;;4.67;;
4698;SDS011;33708;49.466;11.176;2022-09-29T16:28:08;25.37;;;14.50;;
4698;SDS011;33708;49.466;11.176;2022-09-29T16:31:04;30.10;;;18.73;;
4698;SDS011;33708;49.466;11.176;2022-09-29T16:33:42;18.73;;;10.90;;
4698;SDS011;33708;49.466;11.176;2022-09-29T16:36:13;16.57;;;6.73;;
4698;SDS011;33708;49.466;11.176;2022-09-29T16:38:44;17.87;;;9.30;;
4698;SDS011;33708;49.466;11.176;2022-09-29T16:41:24;39.47;;;21.50;;
4698;SDS011;33708;49.466;11.176;2022-09-29T16:46:50;21.00;;;9.97;;
4698;SDS011;33708;49.466;11.176;2022-09-29T16:49:18;20.07;;;10.17;;
4698;SDS011;33708;49.466;11.176;2022-09-29T16:51:47;16.80;;;7.87;;
4698;SDS011;33708;49.466;11.176;2022-09-29T16:54:14;24.83;;;9.43;;
4698;SDS011;33708;49.466;11.176;2022-09-29T16:57:08;27.57;;;15.30;;
4698;SDS011;33708;49.466;11.176;2022-09-29T16:59:34;19.00;;;11.13;;
4698;SDS011;33708;49.466;11.176;2022-09-29T17:02:00;20.43;;;10.30;;
4698;SDS011;33708;49.466;11.176;2022-09-29T17:04:26;30.80;;;9.83;;
4698;SDS011;33708;49.466;11.176;2022-09-29T17:06:51;15.13;;;7.90;;
4698;SDS011;33708;49.466;11.176;2022-09-29T17:09:18;14.17;;;5.80;;
4698;SDS011;33708;49.466;11.176;2022-09-29T17:11:46;22.33;;;7.90;;
4698;SDS011;33708;49.466;11.176;2022-09-29T17:14:13;17.00;;;8.13;;
4698;SDS011;33708;49.466;11.176;2022-09-29T17:16:39;18.60;;;10.23;;
4698;SDS011;33708;49.466;11.176;2022-09-29T17:19:07;20.77;;;10.30;;
4698;SDS011;33708;49.466;11.176;2022-09-29T17:21:34;19.47;;;10.37;;
4698;SDS011;33708;49.466;11.176;2022-09-29T17:24:00;15.40;;;7.50;;
4698;SDS011;33708;49.466;11.176;2022-09-29T17:26:43;22.03;;;8.17;;
4698;SDS011;33708;49.466;11.176;2022-09-29T17:29:28;15.07;;;8.07;;
4698;SDS011;33708;49.466;11.176;2022-09-29T17:31:55;19.80;;;9.50;;
4698;SDS011;33708;49.466;11.176;2022-09-29T17:34:20;23.63;;;11.30;;
4698;SDS011;33708;49.466;11.176;2022-09-29T17:36:52;18.23;;;8.30;;
4698;SDS011;33708;49.466;11.176;2022-09-29T17:39:19;24.87;;;9.50;;
4698;SDS011;33708;49.466;11.176;2022-09-29T17:41:45;20.17;;;8.13;;
4698;SDS011;33708;49.466;11.176;2022-09-29T17:44:13;14.13;;;7.10;;
4698;SDS011;33708;49.466;11.176;2022-09-29T17:46:39;19.47;;;6.93;;
4698;SDS011;33708;49.466;11.176;2022-09-29T17:49:07;14.93;;;6.73;;
4698;SDS011;33708;49.466;11.176;2022-09-29T17:51:36;13.33;;;6.80;;
4698;SDS011;33708;49.466;11.176;2022-09-29T17:54:02;20.97;;;6.20;;
4698;SDS011;33708;49.466;11.176;2022-09-29T17:56:28;17.20;;;6.90;;
4698;SDS011;33708;49.466;11.176;2022-09-29T17:58:58;15.63;;;6.53;;
4698;SDS011;33708;49.466;11.176;2022-09-29T18:01:27;17.00;;;6.90;;
4698;SDS011;33708;49.466;11.176;2022-09-29T18:03:53;13.53;;;6.00;;
4698;SDS011;33708;49.466;11.176;2022-09-29T18:06:21;12.83;;;6.60;;
4698;SDS011;33708;49.466;11.176;2022-09-29T18:08:49;15.00;;;5.87;;
4698;SDS011;33708;49.466;11.176;2022-09-29T18:11:16;16.43;;;6.67;;
4698;SDS011;33708;49.466;11.176;2022-09-29T18:13:43;12.77;;;6.50;;
4698;SDS011;33708;49.466;11.176;2022-09-29T18:16:10;13.30;;;6.03;;
4698;SDS011;33708;49.466;11.176;2022-09-29T18:18:38;16.10;;;7.37;;
4698;SDS011;33708;49.466;11.176;2022-09-29T18:21:03;17.67;;;7.40;;
4698;SDS011;33708;49.466;11.176;2022-09-29T18:23:30;12.80;;;6.20;;
4698;SDS011;33708;49.466;11.176;2022-09-29T18:25:56;11.77;;;6.50;;
4698;SDS011;33708;49.466;11.176;2022-09-29T18:28:21;16.50;;;8.20;;
4698;SDS011;33708;49.466;11.176;2022-09-29T18:30:48;14.00;;;7.40;;
4698;SDS011;33708;49.466;11.176;2022-09-29T18:33:18;13.47;;;6.03;;
4698;SDS011;33708;49.466;11.176;2022-09-29T18:35:45;10.63;;;5.07;;
4698;SDS011;33708;49.466;11.176;2022-09-29T18:38:15;12.87;;;6.33;;
4698;SDS011;33708;49.466;11.176;2022-09-29T18:40:41;13.63;;;5.67;;
4698;SDS011;33708;49.466;11.176;2022-09-29T18:43:08;13.40;;;6.30;;
4698;SDS011;33708;49.466;11.176;2022-09-29T18:45:36;26.13;;;7.00;;
4698;SDS011;33708;49.466;11.176;2022-09-29T18:48:05;12.17;;;5.60;;
4698;SDS011;33708;49.466;11.176;2022-09-29T18:50:35;16.20;;;5.93;;
4698;SDS011;33708;49.466;11.176;2022-09-29T18:53:07;17.07;;;7.40;;
4698;SDS011;33708;49.466;11.176;2022-09-29T18:55:34;15.20;;;7.50;;